sensor_id;sensor_type;location;lat;lon;timestamp;P1;durP1;ratioP1;P2;durP2;ratioP2
17763;SDS011;22245;52.832;13.816;2022-08-01T00:02:06;9.57;;;7.95;;
17763;SDS011;22245;52.832;13.816;2022-08-01T00:05:28;10.57;;;8.23;;
17763;SDS011;22245;52.832;13.816;2022-08-01T00:08:50;9.23;;;8.32;;
17763;SDS011;22245;52.832;13.816;2022-08-01T00:12:12;10.20;;;8.80;;
17763;SDS011;22245;52.832;13.816;2022-08-01T00:15:33;9.65;;;8.70;;
17763;SDS011;22245;52.832;13.816;2022-08-01T00:18:57;10.75;;;8.68;;
17763;SDS011;22245;52.832;13.816;2022-08-01T00:22:19;9.30;;;8.35;;
17763;SDS011;22245;52.832;13.816;2022-08-01T00:25:41;11.35;;;8.68;;
17763;SDS011;22245;52.832;13.816;2022-08-01T00:29:03;9.93;;;8.68;;
17763;SDS011;22245;52.832;13.816;2022-08-01T00:32:44;9.60;;;7.90;;
17763;SDS011;22245;52.832;13.816;2022-08-01T00:36:08;11.18;;;9.23;;
17763;SDS011;22245;52.832;13.816;2022-08-01T00:39:29;8.90;;;8.00;;
17763;SDS011;22245;52.832;13.816;2022-08-01T00:42:52;8.13;;;7.35;;
17763;SDS011;22245;52.832;13.816;2022-08-01T00:46:14;10.07;;;7.47;;
17763;SDS011;22245;52.832;13.816;2022-08-01T00:49:36;8.23;;;7.40;;
17763;SDS011;22245;52.832;13.816;2022-08-01T00:52:59;8.50;;;7.07;;
17763;SDS011;22245;52.832;13.816;2022-08-01T00:56:23;10.70;;;7.45;;
17763;SDS011;22245;52.832;13.816;2022-08-01T00:59:47;10.70;;;7.07;;
17763;SDS011;22245;52.832;13.816;2022-08-01T01:03:09;8.63;;;6.72;;
17763;SDS011;22245;52.832;13.816;2022-08-01T01:06:34;9.32;;;6.90;;
17763;SDS011;22245;52.832;13.816;2022-08-01T01:10:06;8.40;;;6.78;;
17763;SDS011;22245;52.832;13.816;2022-08-01T01:13:34;10.13;;;6.70;;
17763;SDS011;22245;52.832;13.816;2022-08-01T01:17:09;8.32;;;6.75;;
17763;SDS011;22245;52.832;13.816;2022-08-01T01:20:35;7.78;;;6.88;;
17763;SDS011;22245;52.832;13.816;2022-08-01T01:24:03;7.85;;;6.80;;
17763;SDS011;22245;52.832;13.816;2022-08-01T01:27:45;7.63;;;6.30;;
17763;SDS011;22245;52.832;13.816;2022-08-01T01:31:13;8.98;;;7.47;;
17763;SDS011;22245;52.832;13.816;2022-08-01T01:34:39;7.68;;;6.85;;
17763;SDS011;22245;52.832;13.816;2022-08-01T01:38:05;8.02;;;6.80;;
17763;SDS011;22245;52.832;13.816;2022-08-01T01:41:30;7.25;;;6.18;;
17763;SDS011;22245;52.832;13.816;2022-08-01T01:44:53;8.48;;;6.00;;
17763;SDS011;22245;52.832;13.816;2022-08-01T01:48:18;8.23;;;6.20;;
17763;SDS011;22245;52.832;13.816;2022-08-01T01:51:42;6.95;;;6.25;;
17763;SDS011;22245;52.832;13.816;2022-08-01T01:55:21;7.30;;;6.10;;
17763;SDS011;22245;52.832;13.816;2022-08-01T01:58:45;6.43;;;5.82;;
17763;SDS011;22245;52.832;13.816;2022-08-01T02:02:11;7.82;;;6.45;;
17763;SDS011;22245;52.832;13.816;2022-08-01T02:05:38;6.70;;;5.97;;
17763;SDS011;22245;52.832;13.816;2022-08-01T02:09:02;7.80;;;6.32;;
17763;SDS011;22245;52.832;13.816;2022-08-01T02:12:25;6.97;;;6.20;;
17763;SDS011;22245;52.832;13.816;2022-08-01T02:15:49;6.85;;;6.10;;
17763;SDS011;22245;52.832;13.816;2022-08-01T02:19:19;6.80;;;6.00;;
17763;SDS011;22245;52.832;13.816;2022-08-01T02:22:44;6.45;;;5.80;;
17763;SDS011;22245;52.832;13.816;2022-08-01T02:26:13;7.68;;;6.18;;
17763;SDS011;22245;52.832;13.816;2022-08-01T02:29:37;6.57;;;5.97;;
17763;SDS011;22245;52.832;13.816;2022-08-01T02:33:03;7.22;;;5.38;;
17763;SDS011;22245;52.832;13.816;2022-08-01T02:36:35;5.90;;;5.30;;
17763;SDS011;22245;52.832;13.816;2022-08-01T02:40:00;8.20;;;5.22;;
17763;SDS011;22245;52.832;13.816;2022-08-01T02:43:23;5.82;;;5.07;;
17763;SDS011;22245;52.832;13.816;2022-08-01T02:46:49;6.45;;;5.63;;
17763;SDS011;22245;52.832;13.816;2022-08-01T02:50:13;6.00;;;5.20;;
17763;SDS011;22245;52.832;13.816;2022-08-01T02:53:37;6.65;;;5.50;;
17763;SDS011;22245;52.832;13.816;2022-08-01T02:57:06;6.07;;;5.50;;
17763;SDS011;22245;52.832;13.816;2022-08-01T03:00:33;5.82;;;5.25;;
17763;SDS011;22245;52.832;13.816;2022-08-01T03:03:56;7.80;;;5.28;;
17763;SDS011;22245;52.832;13.816;2022-08-01T03:07:17;6.88;;;5.30;;
17763;SDS011;22245;52.832;13.816;2022-08-01T03:10:41;5.97;;;5.43;;
17763;SDS011;22245;52.832;13.816;2022-08-01T03:14:07;8.55;;;5.60;;
17763;SDS011;22245;52.832;13.816;2022-08-01T03:17:31;5.70;;;5.10;;
17763;SDS011;22245;52.832;13.816;2022-08-01T03:20:55;5.97;;;5.43;;
17763;SDS011;22245;52.832;13.816;2022-08-01T03:24:19;6.65;;;5.18;;
17763;SDS011;22245;52.832;13.816;2022-08-01T03:27:43;5.60;;;5.10;;
17763;SDS011;22245;52.832;13.816;2022-08-01T03:31:07;7.13;;;5.30;;
17763;SDS011;22245;52.832;13.816;2022-08-01T03:34:30;5.68;;;5.03;;
17763;SDS011;22245;52.832;13.816;2022-08-01T03:37:52;5.55;;;5.05;;
17763;SDS011;22245;52.832;13.816;2022-08-01T03:41:37;6.45;;;5.50;;
17763;SDS011;22245;52.832;13.816;2022-08-01T03:45:03;7.43;;;5.18;;
17763;SDS011;22245;52.832;13.816;2022-08-01T03:48:35;5.97;;;5.47;;
17763;SDS011;22245;52.832;13.816;2022-08-01T03:52:01;6.03;;;5.20;;
17763;SDS011;22245;52.832;13.816;2022-08-01T03:55:25;7.15;;;5.15;;
17763;SDS011;22245;52.832;13.816;2022-08-01T03:58:48;7.20;;;5.72;;
17763;SDS011;22245;52.832;13.816;2022-08-01T04:02:11;6.88;;;5.60;;
17763;SDS011;22245;52.832;13.816;2022-08-01T04:05:36;7.28;;;5.53;;
17763;SDS011;22245;52.832;13.816;2022-08-01T04:08:58;6.07;;;5.55;;
17763;SDS011;22245;52.832;13.816;2022-08-01T04:12:20;6.70;;;6.07;;
17763;SDS011;22245;52.832;13.816;2022-08-01T04:15:42;6.10;;;5.50;;
17763;SDS011;22245;52.832;13.816;2022-08-01T04:19:04;6.80;;;5.88;;
17763;SDS011;22245;52.832;13.816;2022-08-01T04:22:29;6.63;;;5.38;;
17763;SDS011;22245;52.832;13.816;2022-08-01T04:25:56;7.40;;;6.28;;
17763;SDS011;22245;52.832;13.816;2022-08-01T04:29:20;8.55;;;5.55;;
17763;SDS011;22245;52.832;13.816;2022-08-01T04:32:44;7.38;;;5.57;;
17763;SDS011;22245;52.832;13.816;2022-08-01T04:36:07;6.22;;;5.63;;
17763;SDS011;22245;52.832;13.816;2022-08-01T04:39:33;6.38;;;5.78;;
17763;SDS011;22245;52.832;13.816;2022-08-01T04:43:10;6.78;;;5.80;;
17763;SDS011;22245;52.832;13.816;2022-08-01T04:46:34;7.20;;;6.50;;
17763;SDS011;22245;52.832;13.816;2022-08-01T04:49:56;6.90;;;5.95;;
17763;SDS011;22245;52.832;13.816;2022-08-01T04:53:19;7.18;;;5.88;;
17763;SDS011;22245;52.832;13.816;2022-08-01T04:56:43;6.78;;;6.07;;
17763;SDS011;22245;52.832;13.816;2022-08-01T05:00:10;7.47;;;6.20;;
17763;SDS011;22245;52.832;13.816;2022-08-01T05:03:33;6.70;;;6.03;;
17763;SDS011;22245;52.832;13.816;2022-08-01T05:06:58;6.85;;;5.82;;
17763;SDS011;22245;52.832;13.816;2022-08-01T05:10:20;7.32;;;5.78;;
17763;SDS011;22245;52.832;13.816;2022-08-01T05:13:43;6.93;;;6.22;;
17763;SDS011;22245;52.832;13.816;2022-08-01T05:17:07;7.72;;;6.47;;
17763;SDS011;22245;52.832;13.816;2022-08-01T05:20:30;6.90;;;6.22;;
17763;SDS011;22245;52.832;13.816;2022-08-01T05:23:51;6.90;;;6.20;;
17763;SDS011;22245;52.832;13.816;2022-08-01T05:27:13;7.38;;;6.68;;
17763;SDS011;22245;52.832;13.816;2022-08-01T05:30:38;7.43;;;5.88;;
17763;SDS011;22245;52.832;13.816;2022-08-01T05:34:00;7.30;;;6.50;;
17763;SDS011;22245;52.832;13.816;2022-08-01T05:37:22;8.38;;;6.38;;
17763;SDS011;22245;52.832;13.816;2022-08-01T05:40:44;8.15;;;7.00;;
17763;SDS011;22245;52.832;13.816;2022-08-01T05:44:05;8.85;;;7.18;;
17763;SDS011;22245;52.832;13.816;2022-08-01T05:47:29;9.32;;;7.13;;
17763;SDS011;22245;52.832;13.816;2022-08-01T05:50:51;10.90;;;8.23;;
17763;SDS011;22245;52.832;13.816;2022-08-01T05:54:18;12.27;;;9.32;;
17763;SDS011;22245;52.832;13.816;2022-08-01T05:57:39;13.93;;;9.93;;
17763;SDS011;22245;52.832;13.816;2022-08-01T06:01:01;16.67;;;10.23;;
17763;SDS011;22245;52.832;13.816;2022-08-01T06:04:24;13.98;;;9.98;;
17763;SDS011;22245;52.832;13.816;2022-08-01T06:07:46;11.93;;;9.23;;
17763;SDS011;22245;52.832;13.816;2022-08-01T06:11:08;13.82;;;9.95;;
17763;SDS011;22245;52.832;13.816;2022-08-01T06:14:32;13.10;;;9.98;;
17763;SDS011;22245;52.832;13.816;2022-08-01T06:17:54;12.73;;;9.35;;
17763;SDS011;22245;52.832;13.816;2022-08-01T06:21:17;12.88;;;9.13;;
17763;SDS011;22245;52.832;13.816;2022-08-01T06:24:38;10.50;;;9.00;;
17763;SDS011;22245;52.832;13.816;2022-08-01T06:28:00;11.15;;;9.32;;
17763;SDS011;22245;52.832;13.816;2022-08-01T06:31:22;13.68;;;9.27;;
17763;SDS011;22245;52.832;13.816;2022-08-01T06:34:49;10.57;;;9.32;;
17763;SDS011;22245;52.832;13.816;2022-08-01T06:38:12;13.20;;;9.20;;
17763;SDS011;22245;52.832;13.816;2022-08-01T06:41:34;14.60;;;9.20;;
17763;SDS011;22245;52.832;13.816;2022-08-01T06:44:55;9.60;;;8.18;;
17763;SDS011;22245;52.832;13.816;2022-08-01T06:48:17;12.75;;;8.02;;
17763;SDS011;22245;52.832;13.816;2022-08-01T06:51:39;10.13;;;8.38;;
17763;SDS011;22245;52.832;13.816;2022-08-01T06:55:03;10.38;;;7.60;;
17763;SDS011;22245;52.832;13.816;2022-08-01T06:58:26;8.20;;;7.40;;
17763;SDS011;22245;52.832;13.816;2022-08-01T07:01:50;7.25;;;6.55;;
17763;SDS011;22245;52.832;13.816;2022-08-01T07:05:13;10.40;;;7.28;;
17763;SDS011;22245;52.832;13.816;2022-08-01T07:08:34;8.57;;;7.53;;
17763;SDS011;22245;52.832;13.816;2022-08-01T07:11:59;7.38;;;6.63;;
17763;SDS011;22245;52.832;13.816;2022-08-01T07:15:22;9.70;;;6.22;;
17763;SDS011;22245;52.832;13.816;2022-08-01T07:18:46;6.10;;;5.57;;
17763;SDS011;22245;52.832;13.816;2022-08-01T07:22:08;6.80;;;5.32;;
17763;SDS011;22245;52.832;13.816;2022-08-01T07:25:30;6.72;;;5.80;;
17763;SDS011;22245;52.832;13.816;2022-08-01T07:28:53;6.22;;;5.63;;
17763;SDS011;22245;52.832;13.816;2022-08-01T07:32:15;5.57;;;4.97;;
17763;SDS011;22245;52.832;13.816;2022-08-01T07:35:37;6.90;;;5.22;;
17763;SDS011;22245;52.832;13.816;2022-08-01T07:38:59;6.57;;;4.65;;
17763;SDS011;22245;52.832;13.816;2022-08-01T07:42:21;7.43;;;4.70;;
17763;SDS011;22245;52.832;13.816;2022-08-01T07:45:45;6.70;;;4.80;;
17763;SDS011;22245;52.832;13.816;2022-08-01T07:49:07;5.43;;;4.50;;
17763;SDS011;22245;52.832;13.816;2022-08-01T07:52:29;5.63;;;4.43;;
17763;SDS011;22245;52.832;13.816;2022-08-01T07:55:51;4.65;;;4.25;;
17763;SDS011;22245;52.832;13.816;2022-08-01T07:59:13;5.95;;;4.60;;
17763;SDS011;22245;52.832;13.816;2022-08-01T08:02:46;4.20;;;3.80;;
17763;SDS011;22245;52.832;13.816;2022-08-01T08:06:07;8.18;;;5.55;;
17763;SDS011;22245;52.832;13.816;2022-08-01T08:09:31;5.40;;;4.63;;
17763;SDS011;22245;52.832;13.816;2022-08-01T08:12:57;4.75;;;4.30;;
17763;SDS011;22245;52.832;13.816;2022-08-01T08:16:19;5.75;;;4.20;;
17763;SDS011;22245;52.832;13.816;2022-08-01T08:19:42;4.47;;;4.07;;
17763;SDS011;22245;52.832;13.816;2022-08-01T08:23:04;5.45;;;4.18;;
17763;SDS011;22245;52.832;13.816;2022-08-01T08:27:03;4.60;;;4.10;;
17763;SDS011;22245;52.832;13.816;2022-08-01T08:30:24;4.78;;;4.10;;
17763;SDS011;22245;52.832;13.816;2022-08-01T08:33:46;5.07;;;3.90;;
17763;SDS011;22245;52.832;13.816;2022-08-01T08:37:09;6.15;;;4.00;;
17763;SDS011;22245;52.832;13.816;2022-08-01T08:40:31;6.13;;;3.63;;
17763;SDS011;22245;52.832;13.816;2022-08-01T08:44:00;4.70;;;3.55;;
17763;SDS011;22245;52.832;13.816;2022-08-01T08:47:22;6.82;;;4.00;;
17763;SDS011;22245;52.832;13.816;2022-08-01T08:50:46;3.92;;;3.40;;
17763;SDS011;22245;52.832;13.816;2022-08-01T08:54:11;3.78;;;3.30;;
17763;SDS011;22245;52.832;13.816;2022-08-01T08:57:34;3.60;;;3.30;;
17763;SDS011;22245;52.832;13.816;2022-08-01T09:00:57;4.78;;;3.17;;
17763;SDS011;22245;52.832;13.816;2022-08-01T09:04:20;3.38;;;3.00;;
17763;SDS011;22245;52.832;13.816;2022-08-01T09:07:45;5.35;;;2.90;;
17763;SDS011;22245;52.832;13.816;2022-08-01T09:11:08;3.65;;;2.80;;
17763;SDS011;22245;52.832;13.816;2022-08-01T09:14:44;2.97;;;2.55;;
17763;SDS011;22245;52.832;13.816;2022-08-01T09:18:06;2.88;;;2.67;;
17763;SDS011;22245;52.832;13.816;2022-08-01T09:21:28;3.67;;;2.30;;
17763;SDS011;22245;52.832;13.816;2022-08-01T09:24:58;2.22;;;2.03;;
17763;SDS011;22245;52.832;13.816;2022-08-01T09:28:28;2.17;;;1.98;;
17763;SDS011;22245;52.832;13.816;2022-08-01T09:31:50;3.25;;;2.42;;
17763;SDS011;22245;52.832;13.816;2022-08-01T09:35:22;2.22;;;2.03;;
17763;SDS011;22245;52.832;13.816;2022-08-01T09:38:51;2.35;;;2.15;;
17763;SDS011;22245;52.832;13.816;2022-08-01T09:42:18;2.30;;;2.03;;
17763;SDS011;22245;52.832;13.816;2022-08-01T09:45:50;2.83;;;2.60;;
17763;SDS011;22245;52.832;13.816;2022-08-01T09:49:14;2.60;;;2.40;;
17763;SDS011;22245;52.832;13.816;2022-08-01T09:52:37;3.50;;;2.50;;
17763;SDS011;22245;52.832;13.816;2022-08-01T09:56:08;2.60;;;2.40;;
17763;SDS011;22245;52.832;13.816;2022-08-01T09:59:33;3.38;;;2.40;;
17763;SDS011;22245;52.832;13.816;2022-08-01T10:03:21;2.72;;;2.50;;
17763;SDS011;22245;52.832;13.816;2022-08-01T10:06:44;2.60;;;2.40;;
17763;SDS011;22245;52.832;13.816;2022-08-01T10:10:10;2.67;;;2.42;;
17763;SDS011;22245;52.832;13.816;2022-08-01T10:13:34;3.92;;;2.65;;
17763;SDS011;22245;52.832;13.816;2022-08-01T10:16:56;2.28;;;2.08;;
17763;SDS011;22245;52.832;13.816;2022-08-01T10:20:26;2.45;;;2.25;;
17763;SDS011;22245;52.832;13.816;2022-08-01T10:23:51;2.63;;;2.20;;
17763;SDS011;22245;52.832;13.816;2022-08-01T10:27:21;2.55;;;2.20;;
17763;SDS011;22245;52.832;13.816;2022-08-01T10:30:58;2.65;;;2.40;;
17763;SDS011;22245;52.832;13.816;2022-08-01T10:34:24;3.22;;;2.45;;
17763;SDS011;22245;52.832;13.816;2022-08-01T10:37:50;3.40;;;2.25;;
17763;SDS011;22245;52.832;13.816;2022-08-01T10:41:18;2.90;;;2.60;;
17763;SDS011;22245;52.832;13.816;2022-08-01T10:44:40;4.07;;;2.70;;
17763;SDS011;22245;52.832;13.816;2022-08-01T10:48:09;2.55;;;2.35;;
17763;SDS011;22245;52.832;13.816;2022-08-01T10:51:40;3.00;;;2.45;;
17763;SDS011;22245;52.832;13.816;2022-08-01T10:55:14;4.07;;;2.90;;
17763;SDS011;22245;52.832;13.816;2022-08-01T10:58:37;3.03;;;2.70;;
17763;SDS011;22245;52.832;13.816;2022-08-01T11:02:04;2.97;;;2.67;;
17763;SDS011;22245;52.832;13.816;2022-08-01T11:05:27;3.40;;;2.80;;
17763;SDS011;22245;52.832;13.816;2022-08-01T11:08:52;2.60;;;2.40;;
17763;SDS011;22245;52.832;13.816;2022-08-01T11:12:17;2.65;;;2.15;;
17763;SDS011;22245;52.832;13.816;2022-08-01T11:15:44;2.70;;;2.50;;
17763;SDS011;22245;52.832;13.816;2022-08-01T11:19:09;3.05;;;2.35;;
17763;SDS011;22245;52.832;13.816;2022-08-01T11:22:31;2.30;;;2.00;;
17763;SDS011;22245;52.832;13.816;2022-08-01T11:26:06;2.95;;;1.80;;
17763;SDS011;22245;52.832;13.816;2022-08-01T11:29:31;4.35;;;1.80;;
17763;SDS011;22245;52.832;13.816;2022-08-01T11:32:53;2.30;;;2.08;;
17763;SDS011;22245;52.832;13.816;2022-08-01T11:36:33;2.70;;;2.30;;
17763;SDS011;22245;52.832;13.816;2022-08-01T11:40:15;2.25;;;2.05;;
17763;SDS011;22245;52.832;13.816;2022-08-01T11:47:17;4.90;;;2.33;;
17763;SDS011;22245;52.832;13.816;2022-08-01T11:50:40;5.07;;;2.10;;
17763;SDS011;22245;52.832;13.816;2022-08-01T11:54:02;3.13;;;2.20;;
17763;SDS011;22245;52.832;13.816;2022-08-01T11:57:26;2.83;;;2.60;;
17763;SDS011;22245;52.832;13.816;2022-08-01T12:00:57;2.67;;;2.38;;
17763;SDS011;22245;52.832;13.816;2022-08-01T12:04:21;2.45;;;2.25;;
17763;SDS011;22245;52.832;13.816;2022-08-01T12:07:43;2.45;;;2.25;;
17763;SDS011;22245;52.832;13.816;2022-08-01T12:11:06;4.07;;;2.10;;
17763;SDS011;22245;52.832;13.816;2022-08-01T12:14:28;1.98;;;1.83;;
17763;SDS011;22245;52.832;13.816;2022-08-01T12:17:51;1.88;;;1.48;;
17763;SDS011;22245;52.832;13.816;2022-08-01T12:21:20;1.88;;;1.35;;
17763;SDS011;22245;52.832;13.816;2022-08-01T12:24:42;1.55;;;1.45;;
17763;SDS011;22245;52.832;13.816;2022-08-01T12:28:04;2.00;;;1.38;;
17763;SDS011;22245;52.832;13.816;2022-08-01T12:31:33;2.47;;;1.33;;
17763;SDS011;22245;52.832;13.816;2022-08-01T12:34:56;3.75;;;1.27;;
17763;SDS011;22245;52.832;13.816;2022-08-01T12:38:20;3.45;;;1.45;;
17763;SDS011;22245;52.832;13.816;2022-08-01T12:41:44;1.27;;;1.10;;
17763;SDS011;22245;52.832;13.816;2022-08-01T12:45:07;3.90;;;1.50;;
17763;SDS011;22245;52.832;13.816;2022-08-01T12:48:30;1.35;;;1.17;;
17763;SDS011;22245;52.832;13.816;2022-08-01T12:51:53;3.15;;;1.50;;
17763;SDS011;22245;52.832;13.816;2022-08-01T12:55:18;1.15;;;1.05;;
17763;SDS011;22245;52.832;13.816;2022-08-01T12:58:41;1.63;;;1.20;;
17763;SDS011;22245;52.832;13.816;2022-08-01T13:02:07;1.70;;;1.20;;
17763;SDS011;22245;52.832;13.816;2022-08-01T13:05:41;5.63;;;1.30;;
17763;SDS011;22245;52.832;13.816;2022-08-01T13:09:04;3.63;;;1.30;;
17763;SDS011;22245;52.832;13.816;2022-08-01T13:12:28;2.45;;;1.33;;
17763;SDS011;22245;52.832;13.816;2022-08-01T13:15:50;1.80;;;1.42;;
17763;SDS011;22245;52.832;13.816;2022-08-01T13:23:10;1.55;;;1.30;;
17763;SDS011;22245;52.832;13.816;2022-08-01T13:26:42;1.70;;;1.35;;
17763;SDS011;22245;52.832;13.816;2022-08-01T13:30:14;3.85;;;1.70;;
17763;SDS011;22245;52.832;13.816;2022-08-01T13:33:50;2.33;;;1.90;;
17763;SDS011;22245;52.832;13.816;2022-08-01T13:37:19;2.35;;;1.80;;
17763;SDS011;22245;52.832;13.816;2022-08-01T13:40:41;2.50;;;1.40;;
17763;SDS011;22245;52.832;13.816;2022-08-01T13:44:03;4.57;;;2.10;;
17763;SDS011;22245;52.832;13.816;2022-08-01T13:47:26;2.20;;;2.00;;
17763;SDS011;22245;52.832;13.816;2022-08-01T13:50:51;1.77;;;1.67;;
17763;SDS011;22245;52.832;13.816;2022-08-01T13:54:33;2.40;;;1.55;;
17763;SDS011;22245;52.832;13.816;2022-08-01T13:57:55;2.85;;;1.75;;
17763;SDS011;22245;52.832;13.816;2022-08-01T14:01:16;3.97;;;1.83;;
17763;SDS011;22245;52.832;13.816;2022-08-01T14:04:40;2.00;;;1.90;;
17763;SDS011;22245;52.832;13.816;2022-08-01T14:08:02;2.47;;;1.75;;
17763;SDS011;22245;52.832;13.816;2022-08-01T14:11:24;3.63;;;2.17;;
17763;SDS011;22245;52.832;13.816;2022-08-01T14:14:56;4.28;;;2.53;;
17763;SDS011;22245;52.832;13.816;2022-08-01T14:18:18;3.47;;;2.20;;
17763;SDS011;22245;52.832;13.816;2022-08-01T14:21:41;3.70;;;1.90;;
17763;SDS011;22245;52.832;13.816;2022-08-01T14:25:03;2.80;;;2.22;;
17763;SDS011;22245;52.832;13.816;2022-08-01T14:28:25;2.22;;;2.03;;
17763;SDS011;22245;52.832;13.816;2022-08-01T14:31:48;3.95;;;2.60;;
17763;SDS011;22245;52.832;13.816;2022-08-01T14:35:10;2.40;;;1.90;;
17763;SDS011;22245;52.832;13.816;2022-08-01T14:38:33;3.63;;;1.92;;
17763;SDS011;22245;52.832;13.816;2022-08-01T14:41:55;2.25;;;1.65;;
17763;SDS011;22245;52.832;13.816;2022-08-01T14:45:17;7.57;;;6.60;;
17763;SDS011;22245;52.832;13.816;2022-08-01T14:48:39;1.83;;;1.70;;
17763;SDS011;22245;52.832;13.816;2022-08-01T14:52:01;4.93;;;1.70;;
17763;SDS011;22245;52.832;13.816;2022-08-01T14:55:25;1.88;;;1.73;;
17763;SDS011;22245;52.832;13.816;2022-08-01T14:58:47;2.38;;;1.70;;
17763;SDS011;22245;52.832;13.816;2022-08-01T15:02:10;2.95;;;1.80;;
17763;SDS011;22245;52.832;13.816;2022-08-01T15:05:32;2.95;;;1.60;;
17763;SDS011;22245;52.832;13.816;2022-08-01T15:08:55;3.03;;;2.72;;
17763;SDS011;22245;52.832;13.816;2022-08-01T15:12:18;2.28;;;2.08;;
17763;SDS011;22245;52.832;13.816;2022-08-01T15:15:40;3.08;;;1.88;;
17763;SDS011;22245;52.832;13.816;2022-08-01T15:19:02;1.75;;;1.50;;
17763;SDS011;22245;52.832;13.816;2022-08-01T15:22:25;1.50;;;1.40;;
17763;SDS011;22245;52.832;13.816;2022-08-01T15:25:47;3.88;;;1.50;;
17763;SDS011;22245;52.832;13.816;2022-08-01T15:29:10;2.15;;;1.30;;
17763;SDS011;22245;52.832;13.816;2022-08-01T15:32:33;2.00;;;1.55;;
17763;SDS011;22245;52.832;13.816;2022-08-01T15:35:55;1.30;;;1.20;;
17763;SDS011;22245;52.832;13.816;2022-08-01T15:39:16;1.50;;;1.10;;
17763;SDS011;22245;52.832;13.816;2022-08-01T15:42:38;1.40;;;1.30;;
17763;SDS011;22245;52.832;13.816;2022-08-01T15:46:02;1.15;;;1.10;;
17763;SDS011;22245;52.832;13.816;2022-08-01T15:49:24;1.27;;;1.00;;
17763;SDS011;22245;52.832;13.816;2022-08-01T15:52:46;0.90;;;0.90;;
17763;SDS011;22245;52.832;13.816;2022-08-01T15:56:08;1.02;;;0.90;;
17763;SDS011;22245;52.832;13.816;2022-08-01T15:59:30;1.55;;;0.80;;
17763;SDS011;22245;52.832;13.816;2022-08-01T16:02:53;0.60;;;0.60;;
17763;SDS011;22245;52.832;13.816;2022-08-01T16:06:16;1.10;;;1.00;;
17763;SDS011;22245;52.832;13.816;2022-08-01T16:09:37;1.75;;;0.82;;
17763;SDS011;22245;52.832;13.816;2022-08-01T16:12:59;1.15;;;0.95;;
17763;SDS011;22245;52.832;13.816;2022-08-01T16:16:26;1.92;;;0.80;;
17763;SDS011;22245;52.832;13.816;2022-08-01T16:19:49;1.95;;;0.98;;
17763;SDS011;22245;52.832;13.816;2022-08-01T16:23:12;3.20;;;1.00;;
17763;SDS011;22245;52.832;13.816;2022-08-01T16:26:35;1.27;;;0.90;;
17763;SDS011;22245;52.832;13.816;2022-08-01T16:29:57;1.25;;;0.90;;
17763;SDS011;22245;52.832;13.816;2022-08-01T16:33:18;0.80;;;0.80;;
17763;SDS011;22245;52.832;13.816;2022-08-01T16:37:01;1.55;;;0.93;;
17763;SDS011;22245;52.832;13.816;2022-08-01T16:40:26;2.38;;;1.10;;
17763;SDS011;22245;52.832;13.816;2022-08-01T16:43:49;2.53;;;0.90;;
17763;SDS011;22245;52.832;13.816;2022-08-01T16:47:13;1.27;;;1.02;;
17763;SDS011;22245;52.832;13.816;2022-08-01T16:50:35;1.63;;;1.10;;
17763;SDS011;22245;52.832;13.816;2022-08-01T16:53:58;1.30;;;1.10;;
17763;SDS011;22245;52.832;13.816;2022-08-01T16:57:20;2.03;;;1.00;;
17763;SDS011;22245;52.832;13.816;2022-08-01T17:00:42;1.05;;;0.98;;
17763;SDS011;22245;52.832;13.816;2022-08-01T17:04:16;1.80;;;1.25;;
17763;SDS011;22245;52.832;13.816;2022-08-01T17:07:38;2.15;;;1.20;;
17763;SDS011;22245;52.832;13.816;2022-08-01T17:11:02;2.65;;;1.40;;
17763;SDS011;22245;52.832;13.816;2022-08-01T17:14:23;1.10;;;1.00;;
17763;SDS011;22245;52.832;13.816;2022-08-01T17:17:45;2.13;;;1.20;;
17763;SDS011;22245;52.832;13.816;2022-08-01T17:21:07;3.13;;;1.63;;
17763;SDS011;22245;52.832;13.816;2022-08-01T17:24:29;1.27;;;1.17;;
17763;SDS011;22245;52.832;13.816;2022-08-01T17:27:52;3.72;;;1.00;;
17763;SDS011;22245;52.832;13.816;2022-08-01T17:31:15;2.28;;;1.30;;
17763;SDS011;22245;52.832;13.816;2022-08-01T17:34:37;3.58;;;1.30;;
17763;SDS011;22245;52.832;13.816;2022-08-01T17:37:59;2.58;;;1.35;;
17763;SDS011;22245;52.832;13.816;2022-08-01T17:41:21;2.80;;;1.30;;
17763;SDS011;22245;52.832;13.816;2022-08-01T17:44:44;2.80;;;1.08;;
17763;SDS011;22245;52.832;13.816;2022-08-01T17:48:08;2.55;;;1.25;;
17763;SDS011;22245;52.832;13.816;2022-08-01T17:51:35;2.63;;;1.20;;
17763;SDS011;22245;52.832;13.816;2022-08-01T17:54:56;4.05;;;1.20;;
17763;SDS011;22245;52.832;13.816;2022-08-01T17:58:19;1.60;;;1.30;;
17763;SDS011;22245;52.832;13.816;2022-08-01T18:02:03;3.42;;;1.23;;
17763;SDS011;22245;52.832;13.816;2022-08-01T18:05:26;3.00;;;1.20;;
17763;SDS011;22245;52.832;13.816;2022-08-01T18:08:56;1.83;;;1.25;;
17763;SDS011;22245;52.832;13.816;2022-08-01T18:12:21;2.75;;;1.30;;
17763;SDS011;22245;52.832;13.816;2022-08-01T18:15:43;2.25;;;1.20;;
17763;SDS011;22245;52.832;13.816;2022-08-01T18:19:11;2.95;;;1.45;;
17763;SDS011;22245;52.832;13.816;2022-08-01T18:22:32;2.75;;;1.25;;
17763;SDS011;22245;52.832;13.816;2022-08-01T18:25:54;1.48;;;1.20;;
17763;SDS011;22245;52.832;13.816;2022-08-01T18:29:20;1.85;;;1.63;;
17763;SDS011;22245;52.832;13.816;2022-08-01T18:33:02;4.65;;;1.45;;
17763;SDS011;22245;52.832;13.816;2022-08-01T18:36:26;1.70;;;1.35;;
17763;SDS011;22245;52.832;13.816;2022-08-01T18:39:52;1.70;;;1.38;;
17763;SDS011;22245;52.832;13.816;2022-08-01T18:43:14;2.72;;;1.40;;
17763;SDS011;22245;52.832;13.816;2022-08-01T18:46:37;1.40;;;1.30;;
17763;SDS011;22245;52.832;13.816;2022-08-01T18:49:59;2.60;;;1.60;;
17763;SDS011;22245;52.832;13.816;2022-08-01T18:53:23;2.83;;;1.50;;
17763;SDS011;22245;52.832;13.816;2022-08-01T18:56:44;3.88;;;1.80;;
17763;SDS011;22245;52.832;13.816;2022-08-01T19:00:06;2.75;;;1.48;;
17763;SDS011;22245;52.832;13.816;2022-08-01T19:03:29;2.85;;;1.65;;
17763;SDS011;22245;52.832;13.816;2022-08-01T19:06:51;3.97;;;1.73;;
17763;SDS011;22245;52.832;13.816;2022-08-01T19:10:16;4.43;;;1.60;;
17763;SDS011;22245;52.832;13.816;2022-08-01T19:13:41;4.22;;;2.03;;
17763;SDS011;22245;52.832;13.816;2022-08-01T19:17:03;4.57;;;2.20;;
17763;SDS011;22245;52.832;13.816;2022-08-01T19:20:27;7.18;;;2.42;;
17763;SDS011;22245;52.832;13.816;2022-08-01T19:23:49;3.63;;;2.17;;
17763;SDS011;22245;52.832;13.816;2022-08-01T19:27:29;5.10;;;2.35;;
17763;SDS011;22245;52.832;13.816;2022-08-01T19:30:56;3.17;;;2.35;;
17763;SDS011;22245;52.832;13.816;2022-08-01T19:34:22;4.07;;;2.38;;
17763;SDS011;22245;52.832;13.816;2022-08-01T19:37:49;4.15;;;2.60;;
17763;SDS011;22245;52.832;13.816;2022-08-01T19:41:13;3.78;;;2.40;;
17763;SDS011;22245;52.832;13.816;2022-08-01T19:44:39;3.72;;;2.28;;
17763;SDS011;22245;52.832;13.816;2022-08-01T19:48:03;4.50;;;2.60;;
17763;SDS011;22245;52.832;13.816;2022-08-01T19:51:26;2.85;;;2.20;;
17763;SDS011;22245;52.832;13.816;2022-08-01T19:54:54;5.13;;;3.10;;
17763;SDS011;22245;52.832;13.816;2022-08-01T19:58:16;3.50;;;2.47;;
17763;SDS011;22245;52.832;13.816;2022-08-01T20:01:53;4.90;;;2.08;;
17763;SDS011;22245;52.832;13.816;2022-08-01T20:05:22;3.25;;;2.28;;
17763;SDS011;22245;52.832;13.816;2022-08-01T20:08:45;4.65;;;2.67;;
17763;SDS011;22245;52.832;13.816;2022-08-01T20:12:07;12.07;;;3.15;;
17763;SDS011;22245;52.832;13.816;2022-08-01T20:15:29;3.67;;;2.38;;
17763;SDS011;22245;52.832;13.816;2022-08-01T20:18:52;4.40;;;2.67;;
17763;SDS011;22245;52.832;13.816;2022-08-01T20:22:16;5.53;;;2.65;;